sensor_id;sensor_type;location;lat;lon;timestamp;pressure;altitude;pressure_sealevel;temperature;humidity
40908;BME280;51055;59.436;24.778;2022-10-16T00:01:25;101215.00;;;10.75;100.00
40908;BME280;51055;59.436;24.778;2022-10-16T00:03:54;101212.34;;;10.75;100.00
40908;BME280;51055;59.436;24.778;2022-10-16T00:06:23;101207.53;;;10.80;100.00
40908;BME280;51055;59.436;24.778;2022-10-16T00:08:51;101206.91;;;10.77;100.00
40908;BME280;51055;59.436;24.778;2022-10-16T00:11:24;101216.69;;;10.76;100.00
40908;BME280;51055;59.436;24.778;2022-10-16T00:13:57;101224.66;;;10.76;100.00
40908;BME280;51055;59.436;24.778;2022-10-16T00:16:25;101204.16;;;10.78;100.00
40908;BME280;51055;59.436;24.778;2022-10-16T00:18:54;101206.91;;;10.77;100.00
40908;BME280;51055;59.436;24.778;2022-10-16T00:21:27;101216.56;;;10.78;100.00
40908;BME280;51055;59.436;24.778;2022-10-16T00:23:58;101206.69;;;10.80;100.00
40908;BME280;51055;59.436;24.778;2022-10-16T00:26:28;101201.50;;;10.78;100.00
40908;BME280;51055;59.436;24.778;2022-10-16T00:28:56;101204.16;;;10.78;100.00
40908;BME280;51055;59.436;24.778;2022-10-16T00:31:24;101193.63;;;10.77;100.00
40908;BME280;51055;59.436;24.778;2022-10-16T00:33:52;101185.69;;;10.77;100.00
40908;BME280;51055;59.436;24.778;2022-10-16T00:36:22;101176.38;;;10.71;100.00
40908;BME280;51055;59.436;24.778;2022-10-16T00:38:54;101180.59;;;10.74;100.00
40908;BME280;51055;59.436;24.778;2022-10-16T00:41:23;101181.81;;;10.70;100.00
40908;BME280;51055;59.436;24.778;2022-10-16T00:43:57;101169.50;;;10.69;100.00
40908;BME280;51055;59.436;24.778;2022-10-16T00:51:25;101171.50;;;10.65;100.00
40908;BME280;51055;59.436;24.778;2022-10-16T00:53:55;101170.88;;;10.62;100.00
40908;BME280;51055;59.436;24.778;2022-10-16T00:56:23;101172.81;;;10.60;100.00
40908;BME280;51055;59.436;24.778;2022-10-16T00:58:51;101175.34;;;10.61;100.00
40908;BME280;51055;59.436;24.778;2022-10-16T01:01:18;101175.34;;;10.61;100.00
40908;BME280;51055;59.436;24.778;2022-10-16T01:03:46;101168.31;;;10.60;100.00
40908;BME280;51055;59.436;24.778;2022-10-16T01:06:30;101168.00;;;10.65;100.00
40908;BME280;51055;59.436;24.778;2022-10-16T01:09:26;101166.66;;;10.59;100.00
40908;BME280;51055;59.436;24.778;2022-10-16T01:12:15;101152.63;;;10.57;100.00
40908;BME280;51055;59.436;24.778;2022-10-16T01:14:50;101149.16;;;10.57;100.00
40908;BME280;51055;59.436;24.778;2022-10-16T01:20:35;101151.81;;;10.57;100.00
40908;BME280;51055;59.436;24.778;2022-10-16T01:29:14;101155.06;;;10.60;100.00
40908;BME280;51055;59.436;24.778;2022-10-16T01:31:48;101143.97;;;10.55;100.00
40908;BME280;51055;59.436;24.778;2022-10-16T01:34:51;101146.59;;;10.55;100.00
40908;BME280;51055;59.436;24.778;2022-10-16T01:37:32;101143.09;;;10.55;100.00
40908;BME280;51055;59.436;24.778;2022-10-16T01:40:03;101134.66;;;10.50;100.00
40908;BME280;51055;59.436;24.778;2022-10-16T01:42:42;101140.69;;;10.52;100.00
40908;BME280;51055;59.436;24.778;2022-10-16T01:45:13;101136.00;;;10.55;100.00
40908;BME280;51055;59.436;24.778;2022-10-16T01:47:42;101137.06;;;10.53;100.00
40908;BME280;51055;59.436;24.778;2022-10-16T01:50:12;101136.00;;;10.55;100.00
40908;BME280;51055;59.436;24.778;2022-10-16T01:52:44;101137.81;;;10.55;100.00
40908;BME280;51055;59.436;24.778;2022-10-16T01:55:17;101135.28;;;10.53;100.00
40908;BME280;51055;59.436;24.778;2022-10-16T01:57:49;101127.19;;;10.55;100.00
40908;BME280;51055;59.436;24.778;2022-10-16T02:00:19;101135.91;;;10.57;100.00
40908;BME280;51055;59.436;24.778;2022-10-16T02:02:51;101131.53;;;10.56;100.00
40908;BME280;51055;59.436;24.778;2022-10-16T02:05:28;101129.75;;;10.56;100.00
40908;BME280;51055;59.436;24.778;2022-10-16T02:07:58;101119.22;;;10.55;100.00
40908;BME280;51055;59.436;24.778;2022-10-16T02:10:32;101132.28;;;10.58;100.00
40908;BME280;51055;59.436;24.778;2022-10-16T02:13:17;101121.03;;;10.54;100.00
40908;BME280;51055;59.436;24.778;2022-10-16T02:15:46;101113.06;;;10.54;100.00
40908;BME280;51055;59.436;24.778;2022-10-16T02:18:14;101115.84;;;10.53;100.00
40908;BME280;51055;59.436;24.778;2022-10-16T02:21:02;101119.34;;;10.53;100.00
40908;BME280;51055;59.436;24.778;2022-10-16T02:26:12;101111.28;;;10.55;100.00
40908;BME280;51055;59.436;24.778;2022-10-16T02:28:45;101111.50;;;10.52;100.00
40908;BME280;51055;59.436;24.778;2022-10-16T02:31:22;101107.16;;;10.51;100.00
40908;BME280;51055;59.436;24.778;2022-10-16T02:33:53;101108.97;;;10.50;100.00
40908;BME280;51055;59.436;24.778;2022-10-16T02:36:22;101098.25;;;10.52;100.00
40908;BME280;51055;59.436;24.778;2022-10-16T02:38:50;101091.97;;;10.53;100.00
40908;BME280;51055;59.436;24.778;2022-10-16T02:41:19;101095.34;;;10.55;100.00
40908;BME280;51055;59.436;24.778;2022-10-16T02:43:47;101093.47;;;10.57;100.00
40908;BME280;51055;59.436;24.778;2022-10-16T02:46:16;101088.75;;;10.60;100.00
40908;BME280;51055;59.436;24.778;2022-10-16T02:48:44;101083.44;;;10.60;100.00
40908;BME280;51055;59.436;24.778;2022-10-16T02:51:12;101086.09;;;10.60;100.00
40908;BME280;51055;59.436;24.778;2022-10-16T02:53:40;101081.78;;;10.59;100.00
40908;BME280;51055;59.436;24.778;2022-10-16T02:56:07;101090.44;;;10.61;100.00
40908;BME280;51055;59.436;24.778;2022-10-16T02:58:35;101083.66;;;10.57;100.00
40908;BME280;51055;59.436;24.778;2022-10-16T03:01:02;101082.63;;;10.60;100.00
40908;BME280;51055;59.436;24.778;2022-10-16T03:03:30;101078.38;;;10.57;100.00
40908;BME280;51055;59.436;24.778;2022-10-16T03:05:58;101076.56;;;10.58;100.00
40908;BME280;51055;59.436;24.778;2022-10-16T03:08:25;101070.53;;;10.56;100.00
40908;BME280;51055;59.436;24.778;2022-10-16T03:10:53;101069.59;;;10.57;100.00
40908;BME280;51055;59.436;24.778;2022-10-16T03:13:20;101066.47;;;10.63;100.00
40908;BME280;51055;59.436;24.778;2022-10-16T03:15:48;101062.97;;;10.62;100.00
40908;BME280;51055;59.436;24.778;2022-10-16T03:18:16;101070.19;;;10.60;100.00
40908;BME280;51055;59.436;24.778;2022-10-16T03:20:43;101069.97;;;10.63;100.00
40908;BME280;51055;59.436;24.778;2022-10-16T03:23:11;101057.53;;;10.64;100.00
40908;BME280;51055;59.436;24.778;2022-10-16T03:25:39;101060.19;;;10.64;100.00
40908;BME280;51055;59.436;24.778;2022-10-16T03:28:06;101060.09;;;10.65;100.00
40908;BME280;51055;59.436;24.778;2022-10-16T03:30:35;101069.97;;;10.63;100.00
40908;BME280;51055;59.436;24.778;2022-10-16T03:33:02;101070.81;;;10.64;100.00
40908;BME280;51055;59.436;24.778;2022-10-16T03:35:30;101064.69;;;10.63;100.00
40908;BME280;51055;59.436;24.778;2022-10-16T03:37:58;101076.84;;;10.66;100.00
40908;BME280;51055;59.436;24.778;2022-10-16T03:40:26;101078.75;;;10.64;100.00
40908;BME280;51055;59.436;24.778;2022-10-16T03:42:53;101069.84;;;10.65;100.00
40908;BME280;51055;59.436;24.778;2022-10-16T03:45:24;101076.97;;;10.64;100.00
40908;BME280;51055;59.436;24.778;2022-10-16T03:47:53;101070.47;;;10.68;100.00
40908;BME280;51055;59.436;24.778;2022-10-16T03:50:20;101071.94;;;10.72;100.00
40908;BME280;51055;59.436;24.778;2022-10-16T03:52:48;101065.41;;;10.65;100.00
40908;BME280;51055;59.436;24.778;2022-10-16T03:55:16;101063.69;;;10.64;100.00
40908;BME280;51055;59.436;24.778;2022-10-16T03:57:44;101060.94;;;10.66;100.00
40908;BME280;51055;59.436;24.778;2022-10-16T04:00:12;101058.28;;;10.66;100.00
40908;BME280;51055;59.436;24.778;2022-10-16T04:02:40;101063.59;;;10.66;100.00
40908;BME280;51055;59.436;24.778;2022-10-16T04:05:08;101060.09;;;10.65;100.00
40908;BME280;51055;59.436;24.778;2022-10-16T04:07:36;101059.88;;;10.68;100.00
40908;BME280;51055;59.436;24.778;2022-10-16T04:10:07;101050.19;;;10.67;100.00
40908;BME280;51055;59.436;24.778;2022-10-16T04:12:35;101054.66;;;10.67;100.00
40908;BME280;51055;59.436;24.778;2022-10-16T04:15:03;101058.91;;;10.69;100.00
40908;BME280;51055;59.436;24.778;2022-10-16T04:17:30;101052.63;;;10.70;100.00
40908;BME280;51055;59.436;24.778;2022-10-16T04:19:58;101052.00;;;10.67;100.00
40908;BME280;51055;59.436;24.778;2022-10-16T04:22:26;101054.66;;;10.67;100.00
40908;BME280;51055;59.436;24.778;2022-10-16T04:24:58;101053.94;;;10.65;100.00
40908;BME280;51055;59.436;24.778;2022-10-16T04:27:26;101063.47;;;10.67;100.00
40908;BME280;51055;59.436;24.778;2022-10-16T04:29:55;101063.38;;;10.69;100.00
40908;BME280;51055;59.436;24.778;2022-10-16T04:32:22;101063.38;;;10.69;100.00
40908;BME280;51055;59.436;24.778;2022-10-16T04:34:51;101066.03;;;10.69;100.00
40908;BME280;51055;59.436;24.778;2022-10-16T04:37:18;101055.50;;;10.67;100.00
40908;BME280;51055;59.436;24.778;2022-10-16T04:39:46;101064.09;;;10.71;100.00
40908;BME280;51055;59.436;24.778;2022-10-16T04:42:13;101052.53;;;10.72;100.00
40908;BME280;51055;59.436;24.778;2022-10-16T04:44:41;101061.34;;;10.72;100.00
40908;BME280;51055;59.436;24.778;2022-10-16T04:47:17;101054.09;;;10.74;100.00
40908;BME280;51055;59.436;24.778;2022-10-16T04:49:45;101050.72;;;10.72;100.00
40908;BME280;51055;59.436;24.778;2022-10-16T04:52:12;101052.28;;;10.75;100.00
40908;BME280;51055;59.436;24.778;2022-10-16T04:54:40;101057.59;;;10.75;100.00
40908;BME280;51055;59.436;24.778;2022-10-16T04:57:07;101042.41;;;10.77;100.00
40908;BME280;51055;59.436;24.778;2022-10-16T04:59:35;101049.31;;;10.79;100.00
40908;BME280;51055;59.436;24.778;2022-10-16T05:02:03;101047.59;;;10.78;100.00
40908;BME280;51055;59.436;24.778;2022-10-16T05:04:31;101045.91;;;10.77;100.00
40908;BME280;51055;59.436;24.778;2022-10-16T05:06:59;101049.19;;;10.81;100.00
40908;BME280;51055;59.436;24.778;2022-10-16T05:09:26;101044.00;;;10.79;100.00
40908;BME280;51055;59.436;24.778;2022-10-16T05:11:54;101040.50;;;10.79;100.00
40908;BME280;51055;59.436;24.778;2022-10-16T05:14:22;101042.78;;;10.83;100.00
40908;BME280;51055;59.436;24.778;2022-10-16T05:16:49;101034.09;;;10.81;100.00
40908;BME280;51055;59.436;24.778;2022-10-16T05:19:17;101041.97;;;10.83;100.00
40908;BME280;51055;59.436;24.778;2022-10-16T05:21:55;101041.22;;;10.81;100.00
40908;BME280;51055;59.436;24.778;2022-10-16T05:24:22;101047.28;;;10.83;100.00
40908;BME280;51055;59.436;24.778;2022-10-16T05:26:50;101043.63;;;10.84;100.00
40908;BME280;51055;59.436;24.778;2022-10-16T05:29:19;101042.78;;;10.83;100.00
40908;BME280;51055;59.436;24.778;2022-10-16T05:31:46;101045.44;;;10.83;100.00
40908;BME280;51055;59.436;24.778;2022-10-16T05:34:16;101045.34;;;10.85;100.00
40908;BME280;51055;59.436;24.778;2022-10-16T05:36:44;101041.72;;;10.86;100.00
40908;BME280;51055;59.436;24.778;2022-10-16T05:39:14;101041.38;;;10.90;100.00
40908;BME280;51055;59.436;24.778;2022-10-16T05:41:42;101040.50;;;10.90;100.00
40908;BME280;51055;59.436;24.778;2022-10-16T05:44:11;101050.19;;;10.91;100.00
40908;BME280;51055;59.436;24.778;2022-10-16T05:46:38;101040.66;;;10.88;100.00
40908;BME280;51055;59.436;24.778;2022-10-16T05:49:06;101053.53;;;10.93;100.00
40908;BME280;51055;59.436;24.778;2022-10-16T05:51:34;101051.50;;;10.96;100.00
40908;BME280;51055;59.436;24.778;2022-10-16T05:54:01;101049.72;;;10.97;100.00
40908;BME280;51055;59.436;24.778;2022-10-16T05:56:29;101049.47;;;11.00;100.00
40908;BME280;51055;59.436;24.778;2022-10-16T05:58:56;101044.06;;;11.02;100.00
40908;BME280;51055;59.436;24.778;2022-10-16T06:01:24;101052.88;;;11.02;100.00
40908;BME280;51055;59.436;24.778;2022-10-16T06:03:52;101049.38;;;11.02;100.00
40908;BME280;51055;59.436;24.778;2022-10-16T06:06:22;101051.88;;;11.03;100.00
40908;BME280;51055;59.436;24.778;2022-10-16T06:08:52;101046.59;;;11.03;100.00
40908;BME280;51055;59.436;24.778;2022-10-16T06:11:26;101050.22;;;11.02;100.00
40908;BME280;51055;59.436;24.778;2022-10-16T06:13:57;101068.34;;;11.08;100.00
40908;BME280;51055;59.436;24.778;2022-10-16T06:16:26;101057.72;;;11.08;100.00
40908;BME280;51055;59.436;24.778;2022-10-16T06:18:55;101063.63;;;11.12;100.00
40908;BME280;51055;59.436;24.778;2022-10-16T06:21:28;101064.59;;;11.11;100.00
40908;BME280;51055;59.436;24.778;2022-10-16T06:23:56;101067.25;;;11.11;100.00
40908;BME280;51055;59.436;24.778;2022-10-16T06:26:26;101075.72;;;11.16;100.00
40908;BME280;51055;59.436;24.778;2022-10-16T06:28:55;101073.78;;;11.18;100.00
40908;BME280;51055;59.436;24.778;2022-10-16T06:31:23;101072.09;;;11.17;100.00
40908;BME280;51055;59.436;24.778;2022-10-16T06:33:54;101075.50;;;11.19;100.00
40908;BME280;51055;59.436;24.778;2022-10-16T06:36:24;101075.34;;;11.20;100.00
40908;BME280;51055;59.436;24.778;2022-10-16T06:38:52;101084.03;;;11.22;100.00
40908;BME280;51055;59.436;24.778;2022-10-16T06:41:22;101076.91;;;11.23;100.00
40908;BME280;51055;59.436;24.778;2022-10-16T06:43:50;101082.00;;;11.26;100.00
40908;BME280;51055;59.436;24.778;2022-10-16T06:46:21;101073.94;;;11.27;100.00
40908;BME280;51055;59.436;24.778;2022-10-16T06:48:49;101087.91;;;11.29;100.00
40908;BME280;51055;59.436;24.778;2022-10-16T06:51:19;101087.91;;;11.29;100.00
40908;BME280;51055;59.436;24.778;2022-10-16T06:53:52;101092.19;;;11.32;100.00
40908;BME280;51055;59.436;24.778;2022-10-16T06:56:31;101091.94;;;11.35;100.00
40908;BME280;51055;59.436;24.778;2022-10-16T06:58:59;101088.53;;;11.33;100.00
40908;BME280;51055;59.436;24.778;2022-10-16T07:01:27;101096.25;;;11.36;100.00
40908;BME280;51055;59.436;24.778;2022-10-16T07:03:55;101087.44;;;11.35;100.00
40908;BME280;51055;59.436;24.778;2022-10-16T07:06:23;101093.50;;;11.37;100.00
40908;BME280;51055;59.436;24.778;2022-10-16T07:08:51;101093.38;;;11.39;100.00
40908;BME280;51055;59.436;24.778;2022-10-16T07:11:21;101086.16;;;11.41;100.00
40908;BME280;51055;59.436;24.778;2022-10-16T07:13:50;101086.88;;;11.43;100.00
40908;BME280;51055;59.436;24.778;2022-10-16T07:16:24;101082.31;;;11.45;100.00
40908;BME280;51055;59.436;24.778;2022-10-16T07:18:57;101082.78;;;11.50;100.00
40908;BME280;51055;59.436;24.778;2022-10-16T07:21:32;101078.19;;;11.52;100.00
40908;BME280;51055;59.436;24.778;2022-10-16T07:24:10;101076.25;;;11.54;100.00
40908;BME280;51055;59.436;24.778;2022-10-16T07:26:38;101080.72;;;11.54;100.00
40908;BME280;51055;59.436;24.778;2022-10-16T07:29:11;101078.78;;;11.56;100.00
40908;BME280;51055;59.436;24.778;2022-10-16T07:31:39;101085.81;;;11.57;100.00
40908;BME280;51055;59.436;24.778;2022-10-16T07:34:07;101077.59;;;11.60;100.00
40908;BME280;51055;59.436;24.778;2022-10-16T07:36:34;101084.72;;;11.59;100.00
40908;BME280;51055;59.436;24.778;2022-10-16T07:39:02;101086.41;;;11.60;100.00
40908;BME280;51055;59.436;24.778;2022-10-16T07:41:30;101085.22;;;11.64;100.00
40908;BME280;51055;59.436;24.778;2022-10-16T07:44:00;101074.44;;;11.66;100.00
40908;BME280;51055;59.436;24.778;2022-10-16T07:46:28;101086.78;;;11.67;100.00
40908;BME280;51055;59.436;24.778;2022-10-16T07:48:56;101098.06;;;11.70;100.00
40908;BME280;51055;59.436;24.778;2022-10-16T07:51:25;101091.78;;;11.71;100.00
40908;BME280;51055;59.436;24.778;2022-10-16T07:53:53;101095.38;;;11.70;100.00
40908;BME280;51055;59.436;24.778;2022-10-16T07:56:21;101104.22;;;11.71;100.00
40908;BME280;51055;59.436;24.778;2022-10-16T07:58:50;101097.81;;;11.73;100.00
40908;BME280;51055;59.436;24.778;2022-10-16T08:01:18;101097.66;;;11.75;100.00
40908;BME280;51055;59.436;24.778;2022-10-16T08:03:48;101100.31;;;11.75;100.00
40908;BME280;51055;59.436;24.778;2022-10-16T08:06:18;101100.94;;;11.78;100.00
40908;BME280;51055;59.436;24.778;2022-10-16T08:08:51;101103.34;;;11.81;100.00
40908;BME280;51055;59.436;24.778;2022-10-16T08:11:19;101108.91;;;11.78;100.00
40908;BME280;51055;59.436;24.778;2022-10-16T08:13:46;101102.53;;;11.81;100.00
40908;BME280;51055;59.436;24.778;2022-10-16T08:16:14;101099.50;;;11.85;100.00
40908;BME280;51055;59.436;24.778;2022-10-16T08:18:42;101100.94;;;11.89;100.00
40908;BME280;51055;59.436;24.778;2022-10-16T08:21:13;101113.41;;;11.89;100.00
40908;BME280;51055;59.436;24.778;2022-10-16T08:23:47;101105.41;;;11.89;100.00
40908;BME280;51055;59.436;24.778;2022-10-16T08:26:23;101109.63;;;11.91;100.00
40908;BME280;51055;59.436;24.778;2022-10-16T08:28:51;101107.84;;;11.92;100.00
40908;BME280;51055;59.436;24.778;2022-10-16T08:31:19;101110.63;;;11.90;100.00
40908;BME280;51055;59.436;24.778;2022-10-16T08:33:48;101110.63;;;11.90;100.00
40908;BME280;51055;59.436;24.778;2022-10-16T08:36:16;101122.94;;;11.91;100.00
40908;BME280;51055;59.436;24.778;2022-10-16T08:38:43;101120.16;;;11.93;100.00
40908;BME280;51055;59.436;24.778;2022-10-16T08:47:20;101115.47;;;11.96;100.00
40908;BME280;51055;59.436;24.778;2022-10-16T08:49:59;101112.78;;;11.96;100.00
40908;BME280;51055;59.436;24.778;2022-10-16T08:52:32;101126.94;;;11.97;100.00
40908;BME280;51055;59.436;24.778;2022-10-16T08:55:01;101118.81;;;11.98;100.00
40908;BME280;51055;59.436;24.778;2022-10-16T08:57:29;101123.91;;;12.01;100.00
40908;BME280;51055;59.436;24.778;2022-10-16T09:00:12;101115.81;;;12.03;100.00
40908;BME280;51055;59.436;24.778;2022-10-16T09:05:38;101115.53;;;12.28;100.00
40908;BME280;51055;59.436;24.778;2022-10-16T09:11:27;101113.47;;;12.43;100.00
40908;BME280;51055;59.436;24.778;2022-10-16T09:14:18;101120.34;;;12.45;100.00
40908;BME280;51055;59.436;24.778;2022-10-16T09:16:56;101115.28;;;12.42;100.00
40908;BME280;51055;59.436;24.778;2022-10-16T09:19:32;101117.81;;;12.44;100.00
40908;BME280;51055;59.436;24.778;2022-10-16T09:22:17;101112.63;;;12.42;100.00
40908;BME280;51055;59.436;24.778;2022-10-16T09:24:45;101115.53;;;12.39;100.00
40908;BME280;51055;59.436;24.778;2022-10-16T09:27:14;101111.06;;;12.40;100.00
40908;BME280;51055;59.436;24.778;2022-10-16T09:29:42;101114.44;;;12.42;100.00
40908;BME280;51055;59.436;24.778;2022-10-16T09:32:13;101106.91;;;12.47;100.00
40908;BME280;51055;59.436;24.778;2022-10-16T09:34:45;101105.09;;;12.47;100.00
40908;BME280;51055;59.436;24.778;2022-10-16T09:37:18;101100.78;;;12.46;100.00
40908;BME280;51055;59.436;24.778;2022-10-16T09:39:48;101105.84;;;12.49;100.00
40908;BME280;51055;59.436;24.778;2022-10-16T09:42:35;101091.91;;;12.57;100.00
40908;BME280;51055;59.436;24.778;2022-10-16T09:45:04;101091.78;;;12.59;100.00
40908;BME280;51055;59.436;24.778;2022-10-16T09:47:37;101090.56;;;12.63;100.00
40908;BME280;51055;59.436;24.778;2022-10-16T09:50:27;101091.28;;;12.65;100.00
40908;BME280;51055;59.436;24.778;2022-10-16T09:53:14;101089.47;;;12.65;100.00
40908;BME280;51055;59.436;24.778;2022-10-16T09:55:53;101089.47;;;12.65;100.00
40908;BME280;51055;59.436;24.778;2022-10-16T09:58:22;101088.34;;;12.68;100.00
40908;BME280;51055;59.436;24.778;2022-10-16T10:00:52;101082.66;;;12.72;100.00
40908;BME280;51055;59.436;24.778;2022-10-16T10:03:34;101082.50;;;12.85;100.00
40908;BME280;51055;59.436;24.778;2022-10-16T10:06:16;101077.34;;;12.93;100.00
40908;BME280;51055;59.436;24.778;2022-10-16T10:08:57;101072.56;;;12.87;100.00
40908;BME280;51055;59.436;24.778;2022-10-16T10:16:52;101066.41;;;13.07;100.00
40908;BME280;51055;59.436;24.778;2022-10-16T10:19:22;101067.25;;;13.07;100.00
40908;BME280;51055;59.436;24.778;2022-10-16T10:21:55;101059.75;;;13.13;100.00
40908;BME280;51055;59.436;24.778;2022-10-16T10:24:22;101058.78;;;13.14;100.00
40908;BME280;51055;59.436;24.778;2022-10-16T10:27:04;101065.66;;;13.16;100.00
40908;BME280;51055;59.436;24.778;2022-10-16T10:29:53;101061.06;;;13.18;100.00
40908;BME280;51055;59.436;24.778;2022-10-16T10:32:43;101058.72;;;13.25;100.00
40908;BME280;51055;59.436;24.778;2022-10-16T10:35:22;101054.69;;;13.30;100.00
40908;BME280;51055;59.436;24.778;2022-10-16T10:40:52;101043.75;;;13.33;100.00
40908;BME280;51055;59.436;24.778;2022-10-16T10:46:22;101036.16;;;13.29;100.00
40908;BME280;51055;59.436;24.778;2022-10-16T10:54:59;101030.19;;;13.16;100.00
40908;BME280;51055;59.436;24.778;2022-10-16T10:57:52;101014.47;;;13.13;100.00
40908;BME280;51055;59.436;24.778;2022-10-16T11:03:46;101026.75;;;13.25;100.00
40908;BME280;51055;59.436;24.778;2022-10-16T11:06:33;101015.50;;;13.21;100.00
40908;BME280;51055;59.436;24.778;2022-10-16T11:09:10;101018.34;;;13.29;100.00
40908;BME280;51055;59.436;24.778;2022-10-16T11:11:44;101016.72;;;13.38;100.00
40908;BME280;51055;59.436;24.778;2022-10-16T11:14:24;101005.22;;;13.37;100.00
40908;BME280;51055;59.436;24.778;2022-10-16T11:16:59;101010.97;;;13.42;100.00
40908;BME280;51055;59.436;24.778;2022-10-16T11:24:44;100996.34;;;13.57;100.00
40908;BME280;51055;59.436;24.778;2022-10-16T11:27:16;100998.84;;;13.59;100.00
40908;BME280;51055;59.436;24.778;2022-10-16T11:29:53;100987.63;;;13.55;100.00
40908;BME280;51055;59.436;24.778;2022-10-16T11:32:28;100989.91;;;13.60;100.00
40908;BME280;51055;59.436;24.778;2022-10-16T11:35:05;100989.03;;;13.60;100.00
40908;BME280;51055;59.436;24.778;2022-10-16T11:37:42;100991.13;;;13.56;100.00
40908;BME280;51055;59.436;24.778;2022-10-16T11:40:31;100983.41;;;13.53;100.00
40908;BME280;51055;59.436;24.778;2022-10-16T11:43:06;100981.72;;;13.52;100.00
40908;BME280;51055;59.436;24.778;2022-10-16T11:45:48;100977.69;;;13.57;100.00
40908;BME280;51055;59.436;24.778;2022-10-16T11:51:11;100978.78;;;13.55;100.00
40908;BME280;51055;59.436;24.778;2022-10-16T11:53:55;100978.34;;;13.50;100.00
40908;BME280;51055;59.436;24.778;2022-10-16T11:56:24;100976.94;;;13.46;100.00
40908;BME280;51055;59.436;24.778;2022-10-16T11:59:36;100972.16;;;13.49;100.00
40908;BME280;51055;59.436;24.778;2022-10-16T12:02:27;100975.09;;;13.46;100.00
40908;BME280;51055;59.436;24.778;2022-10-16T12:05:18;100964.34;;;13.48;100.00
40908;BME280;51055;59.436;24.778;2022-10-16T12:08:10;100968.09;;;13.45;100.00
40908;BME280;51055;59.436;24.778;2022-10-16T12:10:40;100974.69;;;13.41;100.00
40908;BME280;51055;59.436;24.778;2022-10-16T12:16:23;100964.56;;;13.45;100.00
40908;BME280;51055;59.436;24.778;2022-10-16T12:19:26;100964.03;;;13.41;100.00
40908;BME280;51055;59.436;24.778;2022-10-16T12:21:52;100957.97;;;13.39;100.00
40908;BME280;51055;59.436;24.778;2022-10-16T12:27:01;100967.78;;;13.39;100.00
40908;BME280;51055;59.436;24.778;2022-10-16T12:29:41;100960.06;;;13.36;100.00
40908;BME280;51055;59.436;24.778;2022-10-16T12:32:31;100948.44;;;13.37;100.00
40908;BME280;51055;59.436;24.778;2022-10-16T12:35:24;100950.25;;;13.36;100.00
40908;BME280;51055;59.436;24.778;2022-10-16T12:37:53;100945.75;;;13.37;100.00
40908;BME280;51055;59.436;24.778;2022-10-16T12:40:28;100940.28;;;13.38;100.00
40908;BME280;51055;59.436;24.778;2022-10-16T12:42:57;100947.56;;;13.36;100.00
40908;BME280;51055;59.436;24.778;2022-10-16T12:45:30;100933.69;;;13.33;100.00
40908;BME280;51055;59.436;24.778;2022-10-16T12:48:00;100937.56;;;13.29;100.00
40908;BME280;51055;59.436;24.778;2022-10-16T12:50:35;100938.69;;;13.26;100.00
40908;BME280;51055;59.436;24.778;2022-10-16T12:53:18;100940.78;;;13.23;100.00
40908;BME280;51055;59.436;24.778;2022-10-16T12:55:52;100938.53;;;13.18;100.00
40908;BME280;51055;59.436;24.778;2022-10-16T12:58:42;100939.88;;;13.13;100.00
40908;BME280;51055;59.436;24.778;2022-10-16T13:01:31;100939.31;;;13.09;100.00
40908;BME280;51055;59.436;24.778;2022-10-16T13:17:42;100920.78;;;13.07;100.00
40908;BME280;51055;59.436;24.778;2022-10-16T13:23:47;100926.38;;;13.04;100.00
40908;BME280;51055;59.436;24.778;2022-10-16T13:28:58;100921.31;;;13.01;100.00
40908;BME280;51055;59.436;24.778;2022-10-16T13:31:26;100923.13;;;13.01;100.00
40908;BME280;51055;59.436;24.778;2022-10-16T13:33:56;100922.16;;;13.02;100.00
40908;BME280;51055;59.436;24.778;2022-10-16T13:38:59;100922.41;;;12.99;100.00
40908;BME280;51055;59.436;24.778;2022-10-16T13:41:27;100928.31;;;13.02;100.00
40908;BME280;51055;59.436;24.778;2022-10-16T13:43:56;100922.97;;;13.02;100.00
40908;BME280;51055;59.436;24.778;2022-10-16T13:46:25;100926.50;;;13.03;100.00
40908;BME280;51055;59.436;24.778;2022-10-16T13:49:01;100921.75;;;13.06;100.00
40908;BME280;51055;59.436;24.778;2022-10-16T13:51:30;100931.56;;;13.06;100.00
40908;BME280;51055;59.436;24.778;2022-10-16T13:53:59;100912.69;;;13.09;100.00
40908;BME280;51055;59.436;24.778;2022-10-16T13:56:29;100922.72;;;13.05;100.00
40908;BME280;51055;59.436;24.778;2022-10-16T13:59:05;100924.56;;;13.05;100.00
40908;BME280;51055;59.436;24.778;2022-10-16T14:01:41;100918.50;;;13.03;100.00
40908;BME280;51055;59.436;24.778;2022-10-16T14:04:12;100923.72;;;13.04;100.00
40908;BME280;51055;59.436;24.778;2022-10-16T14:06:44;100924.56;;;13.05;100.00
40908;BME280;51055;59.436;24.778;2022-10-16T14:09:26;100933.97;;;13.09;100.00
40908;BME280;51055;59.436;24.778;2022-10-16T14:12:10;100936.66;;;13.09;100.00
40908;BME280;51055;59.436;24.778;2022-10-16T14:14:57;100933.03;;;13.10;100.00
40908;BME280;51055;59.436;24.778;2022-10-16T14:17:35;100924.63;;;13.15;100.00
40908;BME280;51055;59.436;24.778;2022-10-16T14:20:05;100932.75;;;13.13;100.00
40908;BME280;51055;59.436;24.778;2022-10-16T14:22:35;100922.09;;;13.13;100.00